createdAt,value
2022-11-03T00:01:38.709Z,59080.81
2022-11-03T00:04:06.606Z,59103.59
2022-11-03T00:06:33.467Z,59126.38
2022-11-03T00:09:01.319Z,59155.34
2022-11-03T00:11:27.843Z,59124.28
2022-11-03T00:13:54.353Z,59103.59
2022-11-03T00:16:21.005Z,59116.00
2022-11-03T00:18:47.408Z,59099.44
2022-11-03T00:21:14.165Z,59082.88
2022-11-03T00:23:42.723Z,59118.09
2022-11-03T00:26:16.359Z,59103.59
2022-11-03T00:28:44.305Z,59087.03
2022-11-03T00:31:15.132Z,59145.00
2022-11-03T00:33:42.632Z,59145.00
2022-11-03T00:36:14.348Z,59095.31
2022-11-03T00:38:41.236Z,59107.72
2022-11-03T00:41:07.755Z,59132.56
2022-11-03T00:43:35.312Z,59107.72
2022-11-03T00:46:02.414Z,59118.09
2022-11-03T00:48:34.953Z,59105.66
2022-11-03T00:51:10.056Z,59149.13
2022-11-03T00:54:04.661Z,59151.22
2022-11-03T00:56:39.320Z,59116.00
2022-11-03T00:59:07.298Z,59101.53
2022-11-03T01:01:46.049Z,59103.59
2022-11-03T01:04:31.991Z,59082.88
2022-11-03T01:06:59.986Z,59103.59
2022-11-03T01:09:29.051Z,59099.44
2022-11-03T01:12:06.257Z,59130.50
2022-11-03T01:14:35.853Z,59140.84
2022-11-03T01:17:05.082Z,59066.31
2022-11-03T01:19:31.582Z,59074.59
2022-11-03T01:21:58.515Z,59173.97
2022-11-03T01:24:24.904Z,59066.31
2022-11-03T01:26:51.502Z,59099.44
2022-11-03T01:29:18.280Z,59093.25
2022-11-03T01:31:44.724Z,59089.09
2022-11-03T01:34:15.799Z,59082.88
2022-11-03T01:36:42.437Z,59074.59
2022-11-03T01:39:13.562Z,59089.09
2022-11-03T01:41:40.993Z,59000.06
2022-11-03T01:44:07.286Z,59068.41
2022-11-03T01:47:00.727Z,59062.19
2022-11-03T01:49:42.328Z,59058.03
2022-11-03T01:52:23.247Z,59014.56
2022-11-03T01:55:03.307Z,59027.00
2022-11-03T01:58:05.424Z,59078.75
2022-11-03T02:00:31.896Z,59169.84
2022-11-03T02:02:58.539Z,59041.47
2022-11-03T02:05:25.528Z,59066.31
2022-11-03T02:07:58.111Z,59082.88
2022-11-03T02:10:25.248Z,59060.13
2022-11-03T02:12:52.194Z,59041.47
2022-11-03T02:15:21.556Z,59070.47
2022-11-03T02:17:49.236Z,59066.31
2022-11-03T02:20:34.999Z,59066.31
2022-11-03T02:23:07.634Z,59097.38
2022-11-03T02:25:53.732Z,59089.09
2022-11-03T02:28:23.633Z,59103.59
2022-11-03T02:31:05.195Z,59037.34
2022-11-03T02:33:48.735Z,59130.50
2022-11-03T02:36:18.168Z,59113.94
2022-11-03T02:38:48.964Z,59124.28
2022-11-03T02:41:16.253Z,59161.56
2022-11-03T02:43:44.456Z,59113.94
2022-11-03T02:46:11.731Z,59167.78
2022-11-03T02:48:38.161Z,59060.13
2022-11-03T02:51:05.329Z,59331.34
2022-11-03T02:53:43.852Z,59097.38
2022-11-03T02:56:24.719Z,59105.66
2022-11-03T02:59:10.201Z,59078.75
2022-11-03T03:01:47.436Z,59091.16
2022-11-03T03:04:20.645Z,59103.59
2022-11-03T03:06:54.932Z,59128.44
2022-11-03T03:09:25.038Z,59122.22
2022-11-03T03:11:53.900Z,59087.03
2022-11-03T03:14:25.279Z,59107.72
2022-11-03T03:17:09.496Z,59134.66
2022-11-03T03:19:43.936Z,59113.94
2022-11-03T03:22:16.748Z,59120.16
2022-11-03T03:24:59.915Z,59080.81
2022-11-03T03:27:28.731Z,59111.88
2022-11-03T03:30:01.443Z,59124.28
2022-11-03T03:32:31.598Z,59140.84
2022-11-03T03:35:04.126Z,59128.44
2022-11-03T03:37:32.061Z,59051.84
2022-11-03T03:40:09.867Z,59122.22
2022-11-03T03:42:57.182Z,59093.25
2022-11-03T03:45:43.126Z,59012.50
2022-11-03T03:50:50.335Z,59109.81
2022-11-03T03:53:18.707Z,59126.38
2022-11-03T03:55:49.896Z,59157.41
2022-11-03T03:58:19.947Z,59132.56
2022-11-03T04:00:46.531Z,59113.94
2022-11-03T04:03:21.100Z,59126.38
2022-11-03T04:05:51.231Z,59109.81
2022-11-03T04:08:18.251Z,59099.44
2022-11-03T04:11:04.032Z,59163.63
2022-11-03T04:13:49.456Z,59182.25
2022-11-03T04:16:35.179Z,59173.97
2022-11-03T04:19:20.610Z,59362.41
2022-11-03T04:22:16.671Z,59186.41
2022-11-03T04:24:52.583Z,59171.91
2022-11-03T04:27:39.573Z,59167.78
2022-11-03T04:30:09.025Z,59211.25
2022-11-03T04:32:38.434Z,59169.84
2022-11-03T04:35:44.176Z,59198.81
2022-11-03T04:38:18.195Z,59207.09
2022-11-03T04:40:53.621Z,59173.97
2022-11-03T04:43:33.127Z,59134.66
2022-11-03T04:45:59.809Z,59173.97
2022-11-03T04:48:27.693Z,59196.75
2022-11-03T04:50:56.107Z,59200.91
2022-11-03T04:53:29.838Z,59182.25
2022-11-03T04:55:56.245Z,59184.34
2022-11-03T04:58:34.561Z,59165.69
2022-11-03T05:01:01.862Z,59209.19
2022-11-03T05:03:31.760Z,59240.25
2022-11-03T05:06:08.628Z,59234.03
2022-11-03T05:08:37.432Z,59202.97
2022-11-03T05:11:30.278Z,59248.53
2022-11-03T05:14:10.654Z,59190.53
2022-11-03T05:16:37.418Z,59138.78
2022-11-03T05:19:03.813Z,59207.09
2022-11-03T05:21:30.200Z,59186.41
2022-11-03T05:24:02.291Z,59227.81
2022-11-03T05:26:35.477Z,59254.72
2022-11-03T05:29:07.528Z,59281.66
2022-11-03T05:31:35.349Z,59229.88
2022-11-03T05:34:03.436Z,59296.13
2022-11-03T05:36:31.068Z,59281.66
2022-11-03T05:39:01.569Z,59312.69
2022-11-03T05:41:30.576Z,59244.38
2022-11-03T05:44:02.718Z,59308.56
2022-11-03T05:46:33.630Z,59356.19
2022-11-03T05:49:03.897Z,59244.38
2022-11-03T05:51:48.835Z,59331.34
2022-11-03T05:54:24.856Z,59275.44
2022-11-03T05:56:51.357Z,59281.66
2022-11-03T05:59:20.699Z,59300.28
2022-11-03T06:01:47.261Z,59254.72
2022-11-03T06:04:37.121Z,59244.38
2022-11-03T06:07:09.760Z,59294.06
2022-11-03T06:09:36.198Z,59285.78
2022-11-03T06:12:05.507Z,59269.22
2022-11-03T06:14:32.572Z,59530.09
2022-11-03T06:17:07.132Z,59279.56
2022-11-03T06:19:43.294Z,59256.81
2022-11-03T06:22:16.501Z,59244.38
2022-11-03T06:24:43.558Z,59256.81
2022-11-03T06:27:14.264Z,59225.75
2022-11-03T06:29:40.683Z,59223.69
2022-11-03T06:32:10.410Z,59279.56
2022-11-03T06:34:43.476Z,59256.81
2022-11-03T06:37:36.353Z,59300.28
2022-11-03T06:40:24.721Z,59337.53
2022-11-03T06:42:52.959Z,59511.47
2022-11-03T06:45:20.454Z,59277.50
2022-11-03T06:47:47.347Z,59339.63
2022-11-03T06:50:27.550Z,59285.78
2022-11-03T06:52:54.590Z,59265.09
2022-11-03T06:55:25.241Z,59310.63
2022-11-03T06:57:55.391Z,59287.84
2022-11-03T07:00:36.090Z,59294.06
2022-11-03T07:03:13.905Z,59265.09
2022-11-03T07:05:40.844Z,59339.63
2022-11-03T07:08:41.117Z,59499.06
2022-11-03T07:11:15.308Z,59410.00
2022-11-03T07:13:41.738Z,59347.91
2022-11-03T07:16:18.999Z,59623.28
2022-11-03T07:18:47.558Z,59341.69
2022-11-03T07:21:46.886Z,59414.16
2022-11-03T07:24:24.361Z,59387.25
2022-11-03T07:26:57.193Z,59393.44
2022-11-03T07:29:26.372Z,59416.22
2022-11-03T07:31:54.218Z,59699.91
2022-11-03T07:34:24.147Z,59472.13
2022-11-03T07:36:55.410Z,59455.56
2022-11-03T07:39:22.466Z,59418.28
2022-11-03T07:41:49.263Z,59434.88
2022-11-03T07:44:21.856Z,59494.91
2022-11-03T07:46:49.459Z,59563.25
2022-11-03T07:49:29.463Z,59554.97
2022-11-03T07:51:57.565Z,59536.31
2022-11-03T07:54:28.572Z,59639.84
2022-11-03T07:56:55.757Z,59658.50
2022-11-03T07:59:32.459Z,59656.41
2022-11-03T08:01:59.238Z,59670.91
2022-11-03T08:04:28.378Z,59641.91
2022-11-03T08:06:54.842Z,59693.69
2022-11-03T08:09:21.351Z,59759.94
2022-11-03T08:11:48.871Z,59768.22
2022-11-03T08:14:15.345Z,59782.72
2022-11-03T08:16:42.244Z,59826.22
2022-11-03T08:19:09.032Z,59708.19
2022-11-03T08:21:35.468Z,59670.91
2022-11-03T08:24:02.325Z,59695.75
2022-11-03T08:26:28.907Z,59648.13
2022-11-03T08:28:55.297Z,59637.78
2022-11-03T08:31:21.688Z,59662.63
2022-11-03T08:33:48.329Z,59670.91
2022-11-03T08:36:14.877Z,59641.91
2022-11-03T08:38:41.375Z,59617.06
2022-11-03T08:41:07.802Z,59646.06
2022-11-03T08:43:34.166Z,59774.44
2022-11-03T08:46:08.174Z,59807.56
2022-11-03T08:48:36.464Z,59834.50
2022-11-03T08:51:02.870Z,59886.25
2022-11-03T08:53:30.073Z,59840.72
2022-11-03T08:55:56.452Z,59869.69
2022-11-03T08:58:22.978Z,59890.41
2022-11-03T09:00:49.620Z,59871.78
2022-11-03T09:03:16.291Z,59786.88
2022-11-03T09:05:42.727Z,59853.13
2022-11-03T09:10:55.826Z,59799.28
2022-11-03T09:13:22.193Z,59817.94
2022-11-03T09:15:48.617Z,59815.84
2022-11-03T09:18:15.152Z,59857.28
2022-11-03T09:20:41.558Z,59832.44
2022-11-03T09:23:07.932Z,59830.34
2022-11-03T09:25:34.754Z,59919.41
2022-11-03T09:28:01.274Z,59880.06
2022-11-03T09:30:28.761Z,60246.59
2022-11-03T09:32:55.169Z,59944.25
2022-11-03T09:35:21.634Z,59964.97
2022-11-03T09:37:48.041Z,60016.72
2022-11-03T09:40:16.001Z,59906.97
2022-11-03T09:42:42.633Z,59991.88
2022-11-03T09:45:09.873Z,60045.72
2022-11-03T09:47:41.231Z,60128.56
2022-11-03T09:50:13.885Z,60165.81
2022-11-03T09:52:40.345Z,60290.09
2022-11-03T09:55:13.754Z,60196.91
2022-11-03T09:57:40.249Z,60223.81
2022-11-03T10:00:13.250Z,60188.59
2022-11-03T10:02:43.283Z,60225.88
2022-11-03T10:05:13.894Z,60165.81
2022-11-03T10:07:42.522Z,60217.59
2022-11-03T10:10:15.989Z,60263.16
2022-11-03T10:12:42.419Z,60109.91
2022-11-03T10:15:16.880Z,60151.34
2022-11-03T10:17:44.244Z,60130.63
2022-11-03T10:20:15.280Z,60126.47
2022-11-03T10:22:42.139Z,60234.16
2022-11-03T10:25:28.086Z,60256.94
2022-11-03T10:28:14.724Z,60275.59
2022-11-03T10:33:40.907Z,60267.31
2022-11-03T10:36:16.479Z,60281.81
2022-11-03T10:38:46.188Z,60225.88
2022-11-03T10:41:18.354Z,60201.03
2022-11-03T10:43:59.518Z,60288.00
2022-11-03T10:49:15.102Z,60259.03
2022-11-03T10:51:42.807Z,60271.44
2022-11-03T10:54:13.082Z,60279.72
2022-11-03T10:56:39.494Z,60306.66
2022-11-03T10:59:05.897Z,60219.66
2022-11-03T11:01:32.796Z,60250.75
2022-11-03T11:03:59.476Z,60267.31
2022-11-03T11:06:30.668Z,60321.16
2022-11-03T11:09:05.811Z,60294.22
2022-11-03T11:11:32.359Z,60379.13
2022-11-03T11:14:20.536Z,60439.19
2022-11-03T11:16:50.715Z,60366.72
2022-11-03T11:19:17.079Z,60426.78
2022-11-03T11:21:43.420Z,60600.75
2022-11-03T11:24:10.610Z,60582.09
2022-11-03T11:26:37.836Z,60544.81
2022-11-03T11:29:11.148Z,60640.09
2022-11-03T11:31:41.390Z,60675.31
2022-11-03T11:34:10.831Z,60853.44
2022-11-03T11:36:39.308Z,60843.06
2022-11-03T11:39:26.925Z,60841.00
2022-11-03T11:42:13.959Z,60814.06
2022-11-03T11:44:43.644Z,60768.50
2022-11-03T11:47:30.285Z,60698.09
2022-11-03T11:50:02.698Z,60743.66
2022-11-03T11:52:30.028Z,60793.38
2022-11-03T11:54:56.467Z,60801.66
2022-11-03T11:57:23.867Z,60863.78
2022-11-03T11:59:51.003Z,60822.38
2022-11-03T12:02:20.182Z,60689.81
2022-11-03T12:04:47.240Z,60656.66
2022-11-03T12:07:13.673Z,60930.06
2022-11-03T12:09:40.278Z,60575.88
2022-11-03T12:12:08.957Z,60524.13
2022-11-03T12:14:37.341Z,60480.63
2022-11-03T12:17:19.142Z,60532.41
2022-11-03T12:19:47.289Z,60493.03
2022-11-03T12:22:29.384Z,60457.84
2022-11-03T12:25:04.067Z,60420.56
2022-11-03T12:27:30.405Z,60364.63
2022-11-03T12:29:59.277Z,60341.84
2022-11-03T12:32:33.631Z,60333.56
2022-11-03T12:35:02.713Z,60348.06
2022-11-03T12:37:29.163Z,60366.72
2022-11-03T12:39:57.043Z,60580.03
2022-11-03T12:42:24.883Z,60292.16
2022-11-03T12:44:51.638Z,60370.84
2022-11-03T12:47:18.018Z,60464.06
2022-11-03T12:49:44.440Z,60691.88
2022-11-03T12:52:11.286Z,60542.75
2022-11-03T12:54:37.653Z,60563.47
2022-11-03T12:57:04.035Z,60652.53
2022-11-03T12:59:30.434Z,60466.13
2022-11-03T13:01:57.113Z,60412.28
2022-11-03T13:04:23.598Z,60389.50
2022-11-03T13:06:51.275Z,60621.47
2022-11-03T13:09:17.649Z,60503.41
2022-11-03T13:12:02.617Z,60656.66
2022-11-03T13:14:29.004Z,60435.06
2022-11-03T13:16:55.403Z,60346.00
2022-11-03T13:19:22.405Z,60256.94
2022-11-03T13:21:48.795Z,60362.56
2022-11-03T13:24:15.233Z,60352.22
2022-11-03T13:26:41.931Z,60348.06
2022-11-03T13:29:08.344Z,60273.53
2022-11-03T13:31:35.612Z,60271.44
2022-11-03T13:34:02.221Z,60263.16
2022-11-03T13:36:28.749Z,60368.78
2022-11-03T13:38:55.220Z,60292.16
2022-11-03T13:41:21.792Z,60327.38
2022-11-03T13:43:48.173Z,60453.69
2022-11-03T13:46:14.574Z,60215.53
2022-11-03T13:51:27.389Z,60267.31
2022-11-03T13:59:27.914Z,60312.88
2022-11-03T14:04:41.902Z,60306.66
2022-11-03T14:07:08.967Z,60201.03
2022-11-03T14:12:20.534Z,60128.56
2022-11-03T14:14:46.908Z,60196.91
2022-11-03T14:17:13.808Z,60387.41
2022-11-03T14:19:45.999Z,60138.91
2022-11-03T14:22:15.264Z,60178.25
2022-11-03T14:24:41.776Z,60072.63
2022-11-03T14:27:08.653Z,60557.25
2022-11-03T14:29:35.101Z,60118.19
2022-11-03T14:32:01.555Z,60120.28
2022-11-03T14:34:28.044Z,60078.84
2022-11-03T14:36:54.538Z,60143.03
2022-11-03T14:39:21.008Z,60097.50
2022-11-03T14:42:05.718Z,60068.50
2022-11-03T14:44:38.377Z,60103.69
2022-11-03T14:47:07.101Z,60068.50
2022-11-03T14:49:34.650Z,60149.25
2022-11-03T14:52:02.292Z,60097.50
2022-11-03T14:54:29.605Z,59983.59
2022-11-03T14:56:56.119Z,60020.88
2022-11-03T14:59:22.629Z,59964.97
2022-11-03T15:01:51.316Z,59964.97
2022-11-03T15:04:18.035Z,59964.97
2022-11-03T15:06:44.813Z,59817.94
2022-11-03T15:09:14.026Z,59861.41
2022-11-03T15:11:44.215Z,59803.44
2022-11-03T15:14:11.955Z,59753.75
2022-11-03T15:16:38.884Z,59830.34
2022-11-03T15:19:06.181Z,59904.91
2022-11-03T15:21:33.376Z,59670.91
2022-11-03T15:26:46.208Z,59629.50
2022-11-03T15:29:12.581Z,59588.09
2022-11-03T15:31:39.387Z,59513.53
2022-11-03T15:34:08.698Z,59557.03
2022-11-03T15:36:35.618Z,59505.25
2022-11-03T15:39:02.076Z,59449.34
2022-11-03T15:41:28.466Z,59552.88
2022-11-03T15:43:54.881Z,59747.53
2022-11-03T15:46:21.405Z,59327.19
2022-11-03T15:48:49.349Z,59318.91
2022-11-03T15:51:16.060Z,59364.47
2022-11-03T15:53:43.841Z,59354.13
2022-11-03T15:56:10.678Z,59327.19
2022-11-03T15:58:37.517Z,59339.63
2022-11-03T16:01:04.551Z,59323.06
2022-11-03T16:03:31.955Z,59298.22
2022-11-03T16:05:58.810Z,59252.66
2022-11-03T16:08:25.336Z,59256.81
2022-11-03T16:10:57.300Z,59310.63
2022-11-03T16:13:24.775Z,59300.28
2022-11-03T16:15:51.547Z,59238.16
2022-11-03T16:18:17.990Z,59213.31
2022-11-03T16:20:44.370Z,59486.63
2022-11-03T16:23:10.796Z,59269.22
2022-11-03T16:25:37.652Z,59221.59
2022-11-03T16:28:04.439Z,59198.81
2022-11-03T16:30:31.498Z,59186.41
2022-11-03T16:32:58.060Z,59219.53
2022-11-03T16:35:24.733Z,59207.09
2022-11-03T16:37:51.149Z,59190.53
2022-11-03T16:40:19.726Z,59231.97
2022-11-03T16:42:47.181Z,59269.22
2022-11-03T16:45:19.331Z,59248.53
2022-11-03T16:47:47.056Z,59213.31
2022-11-03T16:50:13.917Z,59246.44
2022-11-03T16:52:40.483Z,59209.19
2022-11-03T16:55:07.499Z,59254.72
2022-11-03T16:57:33.880Z,59447.28
2022-11-03T17:00:00.345Z,59246.44
2022-11-03T17:02:27.863Z,59176.06
2022-11-03T17:04:54.727Z,59223.69
2022-11-03T17:07:21.170Z,59252.66
2022-11-03T17:09:47.566Z,59302.34
2022-11-03T17:12:14.126Z,59366.53
2022-11-03T17:14:40.553Z,59414.16
2022-11-03T17:17:06.921Z,59285.78
2022-11-03T17:19:33.320Z,59345.84
2022-11-03T17:21:59.715Z,59302.34
2022-11-03T17:24:26.458Z,59294.06
2022-11-03T17:27:10.770Z,59331.34
2022-11-03T17:29:47.743Z,59252.66
2022-11-03T17:32:17.847Z,59273.38
2022-11-03T17:34:44.437Z,59296.13
2022-11-03T17:37:11.023Z,59260.94
2022-11-03T17:39:39.035Z,59236.09
2022-11-03T17:42:16.553Z,59337.53
2022-11-03T17:44:44.619Z,59310.63
2022-11-03T17:47:11.352Z,59302.34
2022-11-03T17:49:37.795Z,59271.28
2022-11-03T17:52:04.528Z,59273.38
2022-11-03T17:54:31.460Z,59316.84
2022-11-03T17:57:00.182Z,59298.22
2022-11-03T17:59:26.843Z,59323.06
2022-11-03T18:01:53.437Z,59314.78
2022-11-03T18:04:19.935Z,59318.91
2022-11-03T18:06:46.523Z,59329.25
2022-11-03T18:09:12.949Z,59343.75
2022-11-03T18:11:58.803Z,59374.81
2022-11-03T18:14:28.034Z,59349.97
2022-11-03T18:16:54.677Z,59325.13
2022-11-03T18:19:21.757Z,59376.88
2022-11-03T18:21:48.307Z,59331.34
2022-11-03T18:24:17.137Z,59366.53
2022-11-03T18:26:43.765Z,59387.25
2022-11-03T18:29:10.373Z,59302.34
2022-11-03T18:31:50.535Z,59401.72
2022-11-03T18:34:19.983Z,59370.69
2022-11-03T18:36:46.543Z,59376.88
2022-11-03T18:39:22.101Z,59393.44
2022-11-03T18:41:48.495Z,59395.53
2022-11-03T18:44:24.948Z,59430.72
2022-11-03T18:46:52.270Z,59461.78
2022-11-03T18:49:19.062Z,59447.28
2022-11-03T18:52:02.905Z,59441.06
2022-11-03T18:54:31.415Z,59410.00
2022-11-03T18:56:58.140Z,59397.59
2022-11-03T18:59:30.942Z,59430.72
2022-11-03T19:01:57.573Z,59381.03
2022-11-03T19:04:24.083Z,59372.75
2022-11-03T19:06:51.826Z,59407.94
2022-11-03T19:09:25.937Z,59416.22
2022-11-03T19:11:54.616Z,59385.16
2022-11-03T19:14:28.999Z,59405.88
2022-11-03T19:19:46.587Z,59666.78
2022-11-03T19:22:18.300Z,59443.16
2022-11-03T19:24:45.199Z,59420.38
2022-11-03T19:27:18.106Z,59465.91
2022-11-03T19:29:45.914Z,59447.28
2022-11-03T19:32:29.881Z,59393.44
2022-11-03T19:35:02.048Z,59360.31
2022-11-03T19:37:34.946Z,59370.69
2022-11-03T19:40:02.154Z,59335.47
2022-11-03T19:42:28.610Z,59362.41
2022-11-03T19:44:59.178Z,59646.06
2022-11-03T19:47:32.845Z,59376.88
2022-11-03T19:50:00.874Z,59362.41
2022-11-03T19:52:28.863Z,59412.09
2022-11-03T19:54:55.682Z,59374.81
2022-11-03T19:57:22.233Z,59513.53
2022-11-03T19:59:48.795Z,59385.16
2022-11-03T20:02:15.740Z,59410.00
2022-11-03T20:04:46.577Z,59370.69
2022-11-03T20:07:14.377Z,59385.16
2022-11-03T20:09:42.363Z,59368.59
2022-11-03T20:12:11.165Z,59391.38
2022-11-03T20:14:37.533Z,59354.13
2022-11-03T20:17:15.388Z,59329.25
2022-11-03T20:19:41.865Z,59333.41
2022-11-03T20:22:15.004Z,59389.31
2022-11-03T20:24:42.260Z,59372.75
2022-11-03T20:27:10.754Z,59374.81
2022-11-03T20:29:37.672Z,59349.97
2022-11-03T20:32:04.194Z,59358.25
2022-11-03T20:34:30.820Z,59327.19
2022-11-03T20:37:00.058Z,59265.09
2022-11-03T20:39:27.880Z,59347.91
2022-11-03T20:41:56.553Z,59484.56
2022-11-03T20:44:23.807Z,59273.38
2022-11-03T20:46:50.291Z,59225.75
2022-11-03T20:49:16.653Z,59333.41
2022-11-03T20:51:46.979Z,59366.53
2022-11-03T20:54:19.446Z,59323.06
2022-11-03T20:56:46.723Z,59256.81
2022-11-03T21:01:42.136Z,59318.91
2022-11-03T21:04:14.212Z,59318.91
2022-11-03T21:06:40.616Z,59306.50
2022-11-03T21:09:14.193Z,59463.84
2022-11-03T21:11:43.174Z,59298.22
2022-11-03T21:14:25.482Z,59496.97
2022-11-03T21:17:10.539Z,59331.34
2022-11-03T21:19:55.603Z,59542.53
2022-11-03T21:22:50.743Z,59339.63
2022-11-03T21:25:18.948Z,59428.66
2022-11-03T21:27:45.509Z,59331.34
2022-11-03T21:30:13.869Z,59337.53
2022-11-03T21:32:40.596Z,59352.03
2022-11-03T21:35:08.272Z,59310.63
2022-11-03T21:37:34.674Z,59347.91
2022-11-03T21:40:01.406Z,59302.34
2022-11-03T21:42:46.386Z,59258.88
2022-11-03T21:45:13.386Z,59327.19
2022-11-03T21:48:00.175Z,59325.13
2022-11-03T21:50:26.583Z,59331.34
2022-11-03T21:52:54.473Z,59633.63
2022-11-03T21:55:21.033Z,59335.47
2022-11-03T21:57:47.443Z,59335.47
2022-11-03T22:00:14.556Z,59335.47
2022-11-03T22:02:41.028Z,59354.13
2022-11-03T22:05:10.787Z,59393.44
2022-11-03T22:07:37.569Z,59294.06
2022-11-03T22:10:04.338Z,59314.78
2022-11-03T22:12:30.760Z,59312.69
2022-11-03T22:15:15.853Z,59300.28
2022-11-03T22:17:44.583Z,59341.69
2022-11-03T22:20:29.627Z,59337.53
2022-11-03T22:23:18.454Z,59385.16
2022-11-03T22:26:03.287Z,59335.47
2022-11-03T22:28:29.729Z,59381.03
2022-11-03T22:31:14.610Z,59337.53
2022-11-03T22:33:59.751Z,59372.75
2022-11-03T22:36:26.854Z,59331.34
2022-11-03T22:39:11.831Z,59513.53
2022-11-03T22:42:00.636Z,59308.56
2022-11-03T22:44:48.419Z,59356.19
2022-11-03T22:47:18.584Z,59378.97
2022-11-03T22:49:45.397Z,59327.19
2022-11-03T22:52:11.848Z,59366.53
2022-11-03T22:54:38.229Z,59345.84
2022-11-03T22:57:04.667Z,59304.41
2022-11-03T22:59:31.243Z,59207.09
2022-11-03T23:01:57.751Z,59149.13
2022-11-03T23:04:24.585Z,59176.06
2022-11-03T23:06:51.034Z,59190.53
2022-11-03T23:09:17.541Z,59173.97
2022-11-03T23:11:43.935Z,59084.97
2022-11-03T23:14:11.384Z,59149.13
2022-11-03T23:16:43.715Z,59120.16
2022-11-03T23:19:30.887Z,59033.19
2022-11-03T23:21:57.426Z,59101.53
2022-11-03T23:24:45.282Z,59093.25
2022-11-03T23:27:12.874Z,59082.88
2022-11-03T23:29:39.290Z,59258.88
2022-11-03T23:32:05.784Z,59000.06
2022-11-03T23:34:32.238Z,59070.47
2022-11-03T23:36:59.396Z,59047.69
2022-11-03T23:39:25.826Z,59205.03
2022-11-03T23:41:52.239Z,59018.72
2022-11-03T23:44:18.669Z,59045.63
2022-11-03T23:47:03.713Z,59171.91
2022-11-03T23:49:30.073Z,59006.28
2022-11-03T23:51:56.558Z,59033.19
2022-11-03T23:54:23.027Z,59020.78
2022-11-03T23:57:07.937Z,59049.75
2022-11-03T23:59:34.883Z,59064.25
